createdAt,value
2023-01-17T00:01:34.175Z,5.27
2023-01-17T00:04:20.966Z,5.43
2023-01-17T00:07:06.280Z,5.77
2023-01-17T00:09:51.344Z,5.37
2023-01-17T00:12:19.050Z,5.17
2023-01-17T00:14:46.923Z,5.43
2023-01-17T00:17:14.580Z,5.00
2023-01-17T00:20:01.583Z,5.37
2023-01-17T00:22:48.832Z,5.10
2023-01-17T00:25:35.640Z,5.30
2023-01-17T00:28:02.675Z,4.57
2023-01-17T00:30:29.382Z,4.77
2023-01-17T00:32:56.328Z,5.03
2023-01-17T00:35:25.941Z,4.27
2023-01-17T00:38:01.573Z,4.47
2023-01-17T00:40:28.218Z,4.23
2023-01-17T00:43:13.333Z,4.10
2023-01-17T00:45:58.710Z,3.87
2023-01-17T00:48:43.980Z,3.90
2023-01-17T00:51:30.716Z,3.67
2023-01-17T00:54:18.781Z,3.80
2023-01-17T00:57:04.144Z,3.40
2023-01-17T00:59:49.899Z,3.50
2023-01-17T01:02:35.776Z,3.90
2023-01-17T01:05:21.456Z,3.30
2023-01-17T01:08:07.851Z,3.40
2023-01-17T01:10:53.204Z,3.20
2023-01-17T01:13:41.825Z,3.03
2023-01-17T01:16:26.862Z,2.90
2023-01-17T01:19:12.078Z,3.00
2023-01-17T01:21:57.299Z,2.90
2023-01-17T01:24:44.440Z,2.97
2023-01-17T01:27:29.866Z,3.13
2023-01-17T01:30:15.074Z,2.27
2023-01-17T01:33:00.534Z,3.10
2023-01-17T01:35:28.674Z,2.67
2023-01-17T01:37:56.622Z,2.47
2023-01-17T01:40:26.137Z,2.70
2023-01-17T01:42:55.659Z,2.60
2023-01-17T01:45:25.481Z,2.57
2023-01-17T01:47:56.160Z,2.70
2023-01-17T01:50:24.750Z,2.70
2023-01-17T01:52:57.309Z,2.63
2023-01-17T01:55:34.575Z,2.47
2023-01-17T01:58:09.706Z,2.80
2023-01-17T02:00:41.012Z,3.03
2023-01-17T02:03:13.963Z,2.80
2023-01-17T02:05:43.834Z,2.80
2023-01-17T02:08:14.441Z,2.40
2023-01-17T02:10:44.613Z,2.83
2023-01-17T02:13:15.986Z,3.00
2023-01-17T02:15:56.879Z,3.33
2023-01-17T02:18:36.935Z,3.33
2023-01-17T02:21:33.761Z,3.13
2023-01-17T02:24:27.456Z,3.03
2023-01-17T02:27:00.568Z,2.90
2023-01-17T02:30:04.109Z,3.07
2023-01-17T02:32:49.929Z,2.60
2023-01-17T02:35:28.830Z,2.17
2023-01-17T02:38:04.438Z,2.23
2023-01-17T02:40:39.285Z,1.90
2023-01-17T02:43:10.760Z,1.80
2023-01-17T02:45:38.582Z,1.83
2023-01-17T02:48:11.140Z,1.50
2023-01-17T02:50:57.304Z,1.57
2023-01-17T02:53:34.159Z,1.50
2023-01-17T02:56:10.777Z,1.50
2023-01-17T02:58:50.089Z,1.70
2023-01-17T03:01:27.620Z,1.83
2023-01-17T03:04:04.138Z,1.50
2023-01-17T03:06:35.411Z,1.40
2023-01-17T03:09:04.500Z,1.70
2023-01-17T03:11:32.216Z,1.80
2023-01-17T03:14:01.486Z,1.80
2023-01-17T03:16:32.132Z,1.70
2023-01-17T03:19:01.252Z,1.80
2023-01-17T03:21:29.024Z,1.40
2023-01-17T03:23:57.334Z,1.47
2023-01-17T03:26:25.004Z,1.37
2023-01-17T03:28:52.848Z,1.00
2023-01-17T03:31:21.268Z,1.17
2023-01-17T03:33:48.891Z,0.80
2023-01-17T03:36:18.811Z,0.90
2023-01-17T03:38:46.465Z,0.70
2023-01-17T03:41:14.780Z,0.60
2023-01-17T03:43:42.541Z,0.43
2023-01-17T03:46:23.499Z,0.70
2023-01-17T03:48:53.026Z,0.80
2023-01-17T03:51:22.553Z,4.50
2023-01-17T03:53:52.151Z,8.70
2023-01-17T03:56:20.748Z,10.73
2023-01-17T03:58:49.099Z,0.90
2023-01-17T04:01:17.191Z,0.53
2023-01-17T04:03:45.339Z,3.00
2023-01-17T04:06:13.074Z,2.67
2023-01-17T04:08:43.721Z,0.70
2023-01-17T04:11:12.593Z,0.60
2023-01-17T04:13:40.656Z,0.50
2023-01-17T04:16:11.611Z,0.53
2023-01-17T04:18:39.507Z,0.60
2023-01-17T04:21:07.974Z,0.60
2023-01-17T04:23:36.379Z,0.43
2023-01-17T04:26:06.562Z,0.70
2023-01-17T04:28:34.315Z,0.43
2023-01-17T04:31:02.135Z,0.93
2023-01-17T04:33:30.604Z,0.50
2023-01-17T04:35:59.712Z,0.87
2023-01-17T04:38:27.951Z,0.40
2023-01-17T04:40:55.959Z,1.00
2023-01-17T04:43:25.578Z,1.77
2023-01-17T04:45:56.133Z,2.43
2023-01-17T04:48:24.499Z,2.27
2023-01-17T04:50:52.437Z,7.27
2023-01-17T04:53:20.308Z,4.07
2023-01-17T04:55:48.703Z,11.27
2023-01-17T04:58:16.580Z,7.83
2023-01-17T05:00:50.852Z,12.33
2023-01-17T05:03:18.792Z,1.57
2023-01-17T05:05:46.528Z,3.23
2023-01-17T05:08:14.633Z,14.70
2023-01-17T05:10:43.300Z,7.17
2023-01-17T05:13:11.615Z,7.63
2023-01-17T05:15:39.587Z,1.17
2023-01-17T05:18:13.857Z,7.40
2023-01-17T05:20:41.719Z,13.70
2023-01-17T05:23:10.526Z,10.50
2023-01-17T05:25:39.390Z,7.33
2023-01-17T05:28:07.487Z,1.77
2023-01-17T05:30:35.570Z,0.93
2023-01-17T05:33:03.215Z,6.20
2023-01-17T05:35:33.816Z,6.60
2023-01-17T05:38:01.858Z,5.10
2023-01-17T05:40:32.059Z,4.63
2023-01-17T05:43:03.077Z,1.93
2023-01-17T05:45:32.693Z,0.83
2023-01-17T05:48:00.667Z,0.63
2023-01-17T05:50:30.692Z,0.90
2023-01-17T05:53:02.880Z,0.90
2023-01-17T05:55:31.885Z,1.10
2023-01-17T05:58:00.064Z,1.30
2023-01-17T06:00:28.104Z,1.40
2023-01-17T06:02:57.176Z,1.00
2023-01-17T06:05:26.614Z,1.40
2023-01-17T06:07:55.259Z,1.33
2023-01-17T06:10:25.648Z,1.30
2023-01-17T06:13:02.861Z,1.30
2023-01-17T06:15:30.976Z,1.30
2023-01-17T06:17:58.699Z,1.40
2023-01-17T06:20:27.360Z,1.40
2023-01-17T06:23:01.384Z,1.70
2023-01-17T06:25:30.460Z,1.60
2023-01-17T06:27:58.466Z,1.80
2023-01-17T06:30:26.527Z,1.73
2023-01-17T06:32:55.399Z,1.50
2023-01-17T06:35:23.975Z,1.90
2023-01-17T06:37:55.226Z,2.20
2023-01-17T06:40:23.664Z,2.50
2023-01-17T06:42:52.916Z,1.80
2023-01-17T06:45:21.493Z,2.33
2023-01-17T06:47:49.119Z,2.20
2023-01-17T06:50:17.439Z,2.27
2023-01-17T06:52:55.711Z,2.10
2023-01-17T06:55:23.861Z,2.10
2023-01-17T06:57:53.423Z,2.33
2023-01-17T07:00:21.856Z,2.23
2023-01-17T07:02:50.787Z,2.23
2023-01-17T07:08:10.823Z,2.20
2023-01-17T07:10:38.452Z,2.50
2023-01-17T07:13:07.618Z,2.53
2023-01-17T07:15:35.426Z,2.73
2023-01-17T07:18:04.318Z,2.50
2023-01-17T07:20:34.013Z,2.60
2023-01-17T07:23:01.794Z,3.10
2023-01-17T07:25:29.709Z,3.30
2023-01-17T07:27:58.064Z,3.27
2023-01-17T07:30:27.495Z,3.73
2023-01-17T07:32:56.274Z,3.13
2023-01-17T07:35:26.653Z,3.50
2023-01-17T07:37:56.040Z,3.40
2023-01-17T07:40:24.403Z,3.20
2023-01-17T07:42:53.282Z,3.40
2023-01-17T07:45:22.932Z,2.87
2023-01-17T07:47:52.539Z,3.57
2023-01-17T07:50:20.555Z,3.40
2023-01-17T07:52:50.611Z,3.47
2023-01-17T07:55:19.243Z,3.37
2023-01-17T07:57:50.768Z,3.00
2023-01-17T08:00:19.478Z,3.20
2023-01-17T08:02:47.184Z,3.33
2023-01-17T08:05:21.439Z,3.90
2023-01-17T08:07:49.210Z,3.80
2023-01-17T08:10:18.344Z,3.70
2023-01-17T08:12:48.293Z,4.00
2023-01-17T08:15:17.319Z,3.30
2023-01-17T08:17:51.064Z,3.60
2023-01-17T08:20:21.612Z,3.70
2023-01-17T08:22:49.532Z,3.47
2023-01-17T08:25:17.253Z,4.00
2023-01-17T08:27:48.531Z,3.30
2023-01-17T08:30:17.645Z,3.23
2023-01-17T08:32:45.310Z,3.20
2023-01-17T08:35:18.136Z,3.00
2023-01-17T08:37:47.721Z,3.47
2023-01-17T08:40:17.156Z,3.57
2023-01-17T08:42:45.381Z,3.20
2023-01-17T08:45:15.043Z,2.63
2023-01-17T08:47:43.228Z,2.73
2023-01-17T08:50:11.853Z,2.87
2023-01-17T08:52:39.622Z,3.00
2023-01-17T08:55:11.235Z,3.00
2023-01-17T08:57:39.563Z,2.73
2023-01-17T09:00:08.658Z,3.70
2023-01-17T09:02:36.515Z,3.70
2023-01-17T09:05:04.824Z,3.67
2023-01-17T09:07:32.604Z,3.07
2023-01-17T09:10:01.435Z,3.03
2023-01-17T09:12:35.270Z,3.20
2023-01-17T09:15:03.334Z,3.37
2023-01-17T09:17:30.916Z,3.30
2023-01-17T09:19:59.448Z,3.10
2023-01-17T09:22:28.097Z,3.30
2023-01-17T09:24:56.698Z,2.87
2023-01-17T09:27:25.142Z,3.30
2023-01-17T09:29:55.253Z,2.90
2023-01-17T09:32:23.651Z,3.20
2023-01-17T09:34:51.584Z,3.47
2023-01-17T09:37:23.813Z,3.50
2023-01-17T09:39:51.740Z,3.20
2023-01-17T09:42:24.210Z,4.10
2023-01-17T09:44:54.671Z,3.90
2023-01-17T09:47:32.590Z,4.00
2023-01-17T09:50:08.882Z,3.63
2023-01-17T09:52:37.311Z,4.20
2023-01-17T09:55:08.181Z,5.03
2023-01-17T09:57:45.075Z,4.57
2023-01-17T10:00:38.919Z,4.70
2023-01-17T10:03:25.665Z,4.10
2023-01-17T10:06:07.566Z,4.63
2023-01-17T10:08:54.924Z,5.03
2023-01-17T10:11:38.286Z,5.60
2023-01-17T10:14:23.483Z,5.07
2023-01-17T10:16:58.881Z,4.93
2023-01-17T10:19:37.497Z,6.17
2023-01-17T10:22:26.895Z,7.03
2023-01-17T10:25:29.972Z,7.60
2023-01-17T10:27:59.401Z,7.03
2023-01-17T10:30:38.085Z,7.03
2023-01-17T10:33:15.118Z,7.20
2023-01-17T10:35:52.915Z,7.67
2023-01-17T10:38:23.221Z,7.10
2023-01-17T10:41:02.176Z,7.50
2023-01-17T10:43:40.469Z,6.67
2023-01-17T10:46:20.375Z,6.47
2023-01-17T10:48:52.787Z,6.50
2023-01-17T10:51:50.273Z,7.43
2023-01-17T10:54:29.302Z,7.47
2023-01-17T10:56:57.719Z,7.07
2023-01-17T10:59:30.909Z,6.97
2023-01-17T11:01:59.341Z,7.60
2023-01-17T11:04:36.762Z,8.20
2023-01-17T11:07:16.086Z,7.93
2023-01-17T11:09:44.994Z,7.87
2023-01-17T11:12:21.769Z,6.93
2023-01-17T11:14:58.743Z,7.83
2023-01-17T11:17:27.860Z,9.47
2023-01-17T11:20:09.474Z,8.60
2023-01-17T11:22:37.588Z,9.00
2023-01-17T11:25:07.144Z,9.10
2023-01-17T11:27:39.570Z,9.57
2023-01-17T11:30:16.915Z,9.70
2023-01-17T11:32:53.890Z,11.83
2023-01-17T11:35:25.761Z,9.97
2023-01-17T11:38:00.387Z,10.93
2023-01-17T11:40:31.349Z,9.17
2023-01-17T11:43:18.853Z,8.63
2023-01-17T11:45:47.746Z,8.10
2023-01-17T11:48:18.203Z,8.17
2023-01-17T11:50:56.319Z,7.67
2023-01-17T11:53:28.327Z,7.50
2023-01-17T11:56:05.627Z,7.13
2023-01-17T11:58:35.672Z,6.07
2023-01-17T12:01:16.053Z,6.23
2023-01-17T12:04:19.356Z,6.47
2023-01-17T12:06:58.088Z,6.63
2023-01-17T12:09:33.664Z,7.00
2023-01-17T12:12:24.880Z,7.20
2023-01-17T12:15:07.237Z,7.20
2023-01-17T12:17:52.832Z,7.00
2023-01-17T12:20:25.933Z,7.57
2023-01-17T12:23:16.999Z,7.37
2023-01-17T12:25:57.615Z,6.90
2023-01-17T12:28:52.930Z,6.17
2023-01-17T12:31:30.566Z,6.10
2023-01-17T12:34:02.164Z,5.53
2023-01-17T12:36:43.449Z,4.80
2023-01-17T12:39:14.428Z,5.60
2023-01-17T12:41:54.146Z,6.13
2023-01-17T12:44:40.122Z,4.67
2023-01-17T12:47:08.334Z,4.70
2023-01-17T12:49:43.220Z,4.13
2023-01-17T12:52:22.401Z,3.70
2023-01-17T12:54:55.947Z,3.70
2023-01-17T12:57:27.967Z,4.10
2023-01-17T13:00:02.787Z,4.43
2023-01-17T13:02:37.020Z,4.13
2023-01-17T13:05:09.962Z,4.17
2023-01-17T13:07:46.901Z,4.80
2023-01-17T13:10:27.302Z,4.10
2023-01-17T13:12:58.579Z,4.33
2023-01-17T13:15:29.775Z,4.50
2023-01-17T13:18:05.276Z,4.47
2023-01-17T13:20:48.349Z,4.30
2023-01-17T13:23:28.405Z,5.03
2023-01-17T13:26:00.395Z,4.50
2023-01-17T13:28:43.917Z,5.13
2023-01-17T13:31:40.127Z,4.30
2023-01-17T13:34:29.036Z,4.93
2023-01-17T13:37:17.114Z,4.10
2023-01-17T13:40:03.249Z,4.77
2023-01-17T13:42:47.033Z,4.93
2023-01-17T13:45:21.460Z,4.50
2023-01-17T13:47:49.380Z,4.50
2023-01-17T13:50:50.954Z,4.20
2023-01-17T13:53:56.218Z,3.80
2023-01-17T13:56:31.393Z,3.90
2023-01-17T13:59:03.458Z,4.13
2023-01-17T14:01:52.911Z,4.03
2023-01-17T14:04:21.588Z,4.00
2023-01-17T14:06:59.497Z,4.17
2023-01-17T14:09:31.375Z,4.30
2023-01-17T14:12:06.595Z,4.70
2023-01-17T14:14:52.600Z,4.30
2023-01-17T14:17:45.229Z,4.27
2023-01-17T14:20:49.933Z,4.33
2023-01-17T14:23:33.137Z,3.90
2023-01-17T14:26:18.020Z,4.53
2023-01-17T14:28:47.276Z,4.10
2023-01-17T14:31:18.940Z,4.03
2023-01-17T14:33:46.579Z,3.90
2023-01-17T14:36:26.056Z,4.20
2023-01-17T14:38:53.955Z,3.73
2023-01-17T14:41:23.755Z,4.67
2023-01-17T14:43:52.324Z,4.37
2023-01-17T14:46:26.716Z,4.20
2023-01-17T14:49:01.537Z,4.00
2023-01-17T14:51:29.841Z,4.07
2023-01-17T14:53:58.950Z,3.53
2023-01-17T14:56:28.454Z,3.50
2023-01-17T14:59:07.653Z,3.90
2023-01-17T15:01:37.248Z,4.83
2023-01-17T15:04:05.216Z,4.57
2023-01-17T15:06:38.620Z,4.23
2023-01-17T15:09:17.586Z,3.97
2023-01-17T15:11:47.312Z,3.93
2023-01-17T15:14:20.956Z,3.60
2023-01-17T15:16:52.008Z,3.67
2023-01-17T15:19:22.383Z,3.30
2023-01-17T15:21:54.012Z,4.10
2023-01-17T15:24:24.180Z,4.17
2023-01-17T15:26:52.381Z,3.43
2023-01-17T15:29:25.634Z,3.80
2023-01-17T15:31:58.294Z,3.43
2023-01-17T15:34:31.112Z,3.73
2023-01-17T15:37:01.981Z,4.10
2023-01-17T15:39:32.060Z,6.00
2023-01-17T15:42:03.127Z,5.67
2023-01-17T15:44:49.702Z,7.67
2023-01-17T15:47:33.728Z,3.83
2023-01-17T15:50:03.663Z,3.30
2023-01-17T15:52:31.390Z,3.27
2023-01-17T15:55:00.359Z,3.03
2023-01-17T15:57:30.848Z,3.67
2023-01-17T16:00:01.206Z,4.07
2023-01-17T16:02:43.635Z,3.60
2023-01-17T16:05:38.647Z,3.17
2023-01-17T16:08:25.742Z,3.50
2023-01-17T16:10:54.948Z,3.30
2023-01-17T16:13:22.855Z,3.67
2023-01-17T16:15:50.937Z,3.50
2023-01-17T16:18:24.872Z,4.00
2023-01-17T16:20:58.388Z,4.30
2023-01-17T16:23:26.278Z,4.23
2023-01-17T16:25:55.023Z,4.33
2023-01-17T16:28:23.527Z,3.87
2023-01-17T16:30:54.000Z,4.00
2023-01-17T16:33:23.353Z,3.43
2023-01-17T16:35:54.992Z,3.73
2023-01-17T16:38:22.827Z,4.43
2023-01-17T16:40:51.015Z,79.43
2023-01-17T16:43:20.319Z,77.53
2023-01-17T16:45:50.360Z,13.60
2023-01-17T16:48:19.319Z,5.47
2023-01-17T16:50:50.707Z,4.80
2023-01-17T16:53:22.574Z,4.07
2023-01-17T16:55:54.019Z,3.87
2023-01-17T16:58:22.018Z,4.03
2023-01-17T17:00:50.235Z,4.20
2023-01-17T17:03:18.661Z,4.17
2023-01-17T17:05:55.363Z,3.83
2023-01-17T17:08:24.370Z,4.20
2023-01-17T17:10:52.199Z,3.60
2023-01-17T17:13:20.638Z,4.10
2023-01-17T17:15:49.225Z,4.07
2023-01-17T17:18:18.884Z,4.07
2023-01-17T17:20:49.538Z,4.47
2023-01-17T17:23:17.509Z,4.23
2023-01-17T17:25:45.348Z,4.20
2023-01-17T17:28:13.137Z,4.40
2023-01-17T17:30:42.005Z,4.13
2023-01-17T17:33:11.314Z,4.50
2023-01-17T17:35:39.718Z,3.97
2023-01-17T17:38:09.083Z,4.53
2023-01-17T17:40:37.005Z,4.40
2023-01-17T17:43:04.737Z,4.83
2023-01-17T17:45:32.476Z,4.63
2023-01-17T17:48:00.350Z,5.47
2023-01-17T17:50:28.183Z,5.50
2023-01-17T17:52:56.202Z,5.47
2023-01-17T17:55:25.794Z,8.00
2023-01-17T17:57:54.611Z,8.83
2023-01-17T18:00:23.117Z,6.90
2023-01-17T18:02:52.280Z,6.90
2023-01-17T18:05:20.149Z,7.33
2023-01-17T18:07:50.902Z,6.23
2023-01-17T18:10:18.996Z,6.40
2023-01-17T18:12:50.223Z,6.97
2023-01-17T18:15:18.564Z,6.87
2023-01-17T18:17:46.709Z,6.97
2023-01-17T18:20:15.605Z,7.73
2023-01-17T18:22:43.815Z,8.17
2023-01-17T18:25:12.770Z,32.20
2023-01-17T18:27:42.430Z,30.93
2023-01-17T18:30:13.743Z,17.93
2023-01-17T18:32:41.987Z,14.00
2023-01-17T18:35:10.896Z,11.40
2023-01-17T18:37:39.697Z,9.67
2023-01-17T18:40:08.120Z,8.50
2023-01-17T18:42:35.897Z,8.70
2023-01-17T18:45:04.010Z,7.83
2023-01-17T18:47:33.794Z,7.63
2023-01-17T18:50:02.673Z,8.03
2023-01-17T18:52:30.372Z,8.93
2023-01-17T18:54:58.027Z,11.20
2023-01-17T18:57:27.276Z,11.80
2023-01-17T18:59:55.289Z,12.63
2023-01-17T19:02:24.386Z,12.27
2023-01-17T19:04:53.506Z,11.90
2023-01-17T19:07:22.016Z,12.47
2023-01-17T19:09:50.338Z,9.77
2023-01-17T19:12:20.658Z,9.67
2023-01-17T19:14:48.671Z,10.80
2023-01-17T19:17:18.458Z,11.53
2023-01-17T19:19:46.317Z,10.03
2023-01-17T19:22:17.149Z,9.83
2023-01-17T19:24:44.797Z,9.73
2023-01-17T19:27:14.278Z,10.53
2023-01-17T19:29:42.345Z,10.47
2023-01-17T19:32:11.631Z,9.47
2023-01-17T19:34:39.582Z,10.27
2023-01-17T19:37:07.767Z,10.67
2023-01-17T19:39:37.137Z,12.23
2023-01-17T19:42:05.370Z,10.90
2023-01-17T19:44:33.343Z,9.93
2023-01-17T19:47:01.446Z,9.67
2023-01-17T19:49:29.165Z,10.03
2023-01-17T19:51:57.041Z,9.60
2023-01-17T19:54:25.570Z,11.43
2023-01-17T19:56:54.918Z,11.80
2023-01-17T19:59:23.655Z,13.03
2023-01-17T20:01:51.800Z,13.77
2023-01-17T20:04:19.736Z,14.93
2023-01-17T20:06:48.544Z,15.60
2023-01-17T20:09:17.416Z,14.67
2023-01-17T20:11:46.787Z,14.23
2023-01-17T20:14:16.852Z,14.10
2023-01-17T20:16:47.548Z,13.13
2023-01-17T20:19:15.555Z,13.70
2023-01-17T20:21:43.660Z,15.23
2023-01-17T20:24:13.696Z,16.00
2023-01-17T20:26:42.442Z,13.83
2023-01-17T20:29:13.711Z,11.93
2023-01-17T20:31:44.592Z,10.30
2023-01-17T20:34:19.689Z,10.23
2023-01-17T20:36:50.475Z,9.83
2023-01-17T20:39:19.495Z,9.90
2023-01-17T20:41:48.983Z,9.90
2023-01-17T20:44:18.687Z,8.73
2023-01-17T20:46:48.797Z,9.60
2023-01-17T20:49:18.861Z,9.43
2023-01-17T20:51:47.363Z,8.63
2023-01-17T20:54:17.810Z,8.90
2023-01-17T20:56:47.511Z,9.37
2023-01-17T20:59:17.862Z,10.23
2023-01-17T21:01:47.882Z,10.70
2023-01-17T21:04:16.670Z,11.47
2023-01-17T21:06:45.163Z,11.03
2023-01-17T21:09:17.546Z,11.33
2023-01-17T21:11:45.468Z,11.43
2023-01-17T21:14:13.463Z,10.50
2023-01-17T21:16:42.027Z,9.47
2023-01-17T21:19:15.217Z,10.03
2023-01-17T21:21:42.976Z,10.20
2023-01-17T21:24:16.271Z,10.63
2023-01-17T21:26:45.623Z,9.40
2023-01-17T21:29:15.989Z,10.90
2023-01-17T21:31:45.250Z,12.53
2023-01-17T21:34:15.046Z,13.27
2023-01-17T21:36:43.882Z,12.23
2023-01-17T21:39:15.753Z,13.87
2023-01-17T21:41:46.736Z,12.60
2023-01-17T21:44:16.707Z,13.40
2023-01-17T21:46:44.718Z,14.20
2023-01-17T21:49:15.669Z,13.77
2023-01-17T21:51:58.142Z,12.60
2023-01-17T21:54:40.860Z,10.97
2023-01-17T21:57:26.729Z,10.43
2023-01-17T21:59:55.020Z,10.27
2023-01-17T22:02:23.421Z,9.37
2023-01-17T22:04:54.613Z,9.40
2023-01-17T22:07:22.327Z,8.23
2023-01-17T22:09:50.070Z,8.23
2023-01-17T22:12:17.732Z,8.50
2023-01-17T22:14:45.747Z,9.07
2023-01-17T22:17:13.897Z,7.80
2023-01-17T22:19:43.051Z,8.63
2023-01-17T22:22:12.349Z,7.30
2023-01-17T22:24:41.668Z,8.20
2023-01-17T22:27:10.014Z,8.20
2023-01-17T22:29:38.080Z,8.43
2023-01-17T22:32:06.643Z,8.10
2023-01-17T22:34:34.476Z,9.27
2023-01-17T22:37:03.997Z,9.50
2023-01-17T22:39:33.513Z,8.17
2023-01-17T22:42:01.537Z,8.90
2023-01-17T22:44:29.417Z,7.70
2023-01-17T22:46:57.301Z,7.50
2023-01-17T22:49:25.442Z,7.93
2023-01-17T22:51:53.481Z,7.33
2023-01-17T22:54:22.441Z,7.53
2023-01-17T22:56:51.696Z,6.17
2023-01-17T22:59:19.580Z,6.97
2023-01-17T23:01:47.359Z,6.70
2023-01-17T23:04:17.291Z,6.70
2023-01-17T23:06:45.043Z,6.80
2023-01-17T23:09:15.565Z,7.47
2023-01-17T23:11:47.467Z,6.77
2023-01-17T23:14:20.606Z,7.03
2023-01-17T23:17:08.463Z,7.50
2023-01-17T23:19:37.746Z,7.23
2023-01-17T23:22:17.067Z,6.87
2023-01-17T23:24:47.467Z,7.40
2023-01-17T23:27:38.639Z,7.13
2023-01-17T23:30:11.671Z,7.60
2023-01-17T23:32:40.329Z,8.00
2023-01-17T23:35:08.565Z,7.47
2023-01-17T23:37:53.830Z,7.07
2023-01-17T23:40:21.546Z,6.57
2023-01-17T23:43:07.201Z,6.83
2023-01-17T23:45:37.864Z,6.00
2023-01-17T23:48:09.372Z,6.47
2023-01-17T23:50:37.855Z,5.50
2023-01-17T23:53:08.918Z,6.20
2023-01-17T23:55:38.398Z,6.00
2023-01-17T23:58:06.731Z,5.97
